sensor_id;sensor_type;location;lat;lon;timestamp;temperature;humidity
41678;DHT22;27364;49.026;8.712;2023-08-06T00:01:49;15.10;99.90
41678;DHT22;27364;49.026;8.712;2023-08-06T00:04:14;15.10;99.90
41678;DHT22;27364;49.026;8.712;2023-08-06T00:06:40;15.10;99.90
41678;DHT22;27364;49.026;8.712;2023-08-06T00:09:05;15.10;99.90
41678;DHT22;27364;49.026;8.712;2023-08-06T00:11:31;15.10;99.90
41678;DHT22;27364;49.026;8.712;2023-08-06T00:13:57;15.10;99.90
41678;DHT22;27364;49.026;8.712;2023-08-06T00:16:22;15.10;99.90
41678;DHT22;27364;49.026;8.712;2023-08-06T00:18:48;15.10;99.90
41678;DHT22;27364;49.026;8.712;2023-08-06T00:21:13;15.10;99.90
41678;DHT22;27364;49.026;8.712;2023-08-06T00:23:40;15.10;99.90
41678;DHT22;27364;49.026;8.712;2023-08-06T00:26:05;15.10;99.90
41678;DHT22;27364;49.026;8.712;2023-08-06T00:28:31;15.00;99.90
41678;DHT22;27364;49.026;8.712;2023-08-06T00:30:57;15.00;99.90
41678;DHT22;27364;49.026;8.712;2023-08-06T00:33:23;15.00;99.90
41678;DHT22;27364;49.026;8.712;2023-08-06T00:35:49;15.00;99.90
41678;DHT22;27364;49.026;8.712;2023-08-06T00:38:14;15.00;99.90
41678;DHT22;27364;49.026;8.712;2023-08-06T00:40:40;15.00;99.90
41678;DHT22;27364;49.026;8.712;2023-08-06T00:43:06;15.00;99.90
41678;DHT22;27364;49.026;8.712;2023-08-06T00:45:34;15.00;99.90
41678;DHT22;27364;49.026;8.712;2023-08-06T00:48:01;15.00;99.90
41678;DHT22;27364;49.026;8.712;2023-08-06T00:50:27;15.00;99.90
41678;DHT22;27364;49.026;8.712;2023-08-06T00:52:53;15.00;99.90
41678;DHT22;27364;49.026;8.712;2023-08-06T00:55:19;14.90;99.90
41678;DHT22;27364;49.026;8.712;2023-08-06T00:57:45;14.90;99.90
41678;DHT22;27364;49.026;8.712;2023-08-06T01:00:11;14.90;99.90
41678;DHT22;27364;49.026;8.712;2023-08-06T01:02:37;14.80;99.90
41678;DHT22;27364;49.026;8.712;2023-08-06T01:05:03;14.80;99.90
41678;DHT22;27364;49.026;8.712;2023-08-06T01:07:44;14.70;99.90
41678;DHT22;27364;49.026;8.712;2023-08-06T01:13:45;14.70;99.90
41678;DHT22;27364;49.026;8.712;2023-08-06T01:16:15;14.70;99.90
41678;DHT22;27364;49.026;8.712;2023-08-06T01:18:41;14.70;99.90
41678;DHT22;27364;49.026;8.712;2023-08-06T01:21:08;14.70;99.90
41678;DHT22;27364;49.026;8.712;2023-08-06T01:23:34;14.60;99.90
41678;DHT22;27364;49.026;8.712;2023-08-06T01:29:04;14.70;99.90
41678;DHT22;27364;49.026;8.712;2023-08-06T01:31:35;14.80;99.90
41678;DHT22;27364;49.026;8.712;2023-08-06T01:34:04;14.70;99.90
41678;DHT22;27364;49.026;8.712;2023-08-06T01:36:30;14.70;99.90
41678;DHT22;27364;49.026;8.712;2023-08-06T01:38:56;14.70;99.90
41678;DHT22;27364;49.026;8.712;2023-08-06T01:41:22;14.70;99.90
41678;DHT22;27364;49.026;8.712;2023-08-06T01:43:48;14.70;99.90
41678;DHT22;27364;49.026;8.712;2023-08-06T01:46:13;14.60;99.90
41678;DHT22;27364;49.026;8.712;2023-08-06T01:48:39;14.60;99.90
41678;DHT22;27364;49.026;8.712;2023-08-06T01:51:05;14.60;99.90
41678;DHT22;27364;49.026;8.712;2023-08-06T01:53:31;14.60;99.90
41678;DHT22;27364;49.026;8.712;2023-08-06T01:55:57;14.60;99.90
41678;DHT22;27364;49.026;8.712;2023-08-06T01:58:23;14.60;99.90
41678;DHT22;27364;49.026;8.712;2023-08-06T02:00:48;14.50;99.90
41678;DHT22;27364;49.026;8.712;2023-08-06T02:03:15;14.40;99.90
41678;DHT22;27364;49.026;8.712;2023-08-06T02:05:40;14.40;99.90
41678;DHT22;27364;49.026;8.712;2023-08-06T02:08:06;14.50;99.90
41678;DHT22;27364;49.026;8.712;2023-08-06T02:10:32;14.40;99.90
41678;DHT22;27364;49.026;8.712;2023-08-06T02:12:58;14.40;99.90
41678;DHT22;27364;49.026;8.712;2023-08-06T02:15:23;14.50;99.90
41678;DHT22;27364;49.026;8.712;2023-08-06T02:17:49;14.50;99.90
41678;DHT22;27364;49.026;8.712;2023-08-06T02:20:14;14.50;99.90
41678;DHT22;27364;49.026;8.712;2023-08-06T02:22:40;14.50;99.90
41678;DHT22;27364;49.026;8.712;2023-08-06T02:25:05;14.50;99.90
41678;DHT22;27364;49.026;8.712;2023-08-06T02:27:31;14.50;99.90
41678;DHT22;27364;49.026;8.712;2023-08-06T02:29:56;14.50;99.90
41678;DHT22;27364;49.026;8.712;2023-08-06T02:32:22;14.50;99.90
41678;DHT22;27364;49.026;8.712;2023-08-06T02:34:47;14.40;99.90
41678;DHT22;27364;49.026;8.712;2023-08-06T02:37:13;14.40;99.90
41678;DHT22;27364;49.026;8.712;2023-08-06T02:39:39;14.30;99.90
41678;DHT22;27364;49.026;8.712;2023-08-06T02:42:07;14.40;99.90
41678;DHT22;27364;49.026;8.712;2023-08-06T02:44:33;14.30;99.90
41678;DHT22;27364;49.026;8.712;2023-08-06T02:46:59;14.30;99.90
41678;DHT22;27364;49.026;8.712;2023-08-06T02:49:25;14.30;99.90
41678;DHT22;27364;49.026;8.712;2023-08-06T02:51:50;14.30;99.90
41678;DHT22;27364;49.026;8.712;2023-08-06T02:54:18;14.40;99.90
41678;DHT22;27364;49.026;8.712;2023-08-06T02:56:44;14.50;99.90
41678;DHT22;27364;49.026;8.712;2023-08-06T02:59:10;14.50;99.90
41678;DHT22;27364;49.026;8.712;2023-08-06T03:01:36;14.40;99.90
41678;DHT22;27364;49.026;8.712;2023-08-06T03:04:02;14.50;99.90
41678;DHT22;27364;49.026;8.712;2023-08-06T03:06:27;14.50;99.90
41678;DHT22;27364;49.026;8.712;2023-08-06T03:08:53;14.50;99.90
41678;DHT22;27364;49.026;8.712;2023-08-06T03:11:18;14.60;99.90
41678;DHT22;27364;49.026;8.712;2023-08-06T03:13:44;14.60;99.90
41678;DHT22;27364;49.026;8.712;2023-08-06T03:16:09;14.60;99.90
41678;DHT22;27364;49.026;8.712;2023-08-06T03:18:35;14.70;99.90
41678;DHT22;27364;49.026;8.712;2023-08-06T03:21:00;14.80;99.90
41678;DHT22;27364;49.026;8.712;2023-08-06T03:23:26;14.80;99.90
41678;DHT22;27364;49.026;8.712;2023-08-06T03:25:51;14.80;99.90
41678;DHT22;27364;49.026;8.712;2023-08-06T03:28:17;14.80;99.90
41678;DHT22;27364;49.026;8.712;2023-08-06T03:30:42;14.90;99.90
41678;DHT22;27364;49.026;8.712;2023-08-06T03:33:08;14.90;99.90
41678;DHT22;27364;49.026;8.712;2023-08-06T03:35:33;14.90;99.90
41678;DHT22;27364;49.026;8.712;2023-08-06T03:37:59;14.90;99.90
41678;DHT22;27364;49.026;8.712;2023-08-06T03:40:24;14.90;99.90
41678;DHT22;27364;49.026;8.712;2023-08-06T03:42:50;14.90;99.90
41678;DHT22;27364;49.026;8.712;2023-08-06T03:45:15;14.90;99.90
41678;DHT22;27364;49.026;8.712;2023-08-06T03:47:41;14.80;99.90
41678;DHT22;27364;49.026;8.712;2023-08-06T03:50:07;14.80;99.90
41678;DHT22;27364;49.026;8.712;2023-08-06T03:52:32;14.80;99.90
41678;DHT22;27364;49.026;8.712;2023-08-06T03:54:58;14.80;99.90
41678;DHT22;27364;49.026;8.712;2023-08-06T03:57:23;14.70;99.90
41678;DHT22;27364;49.026;8.712;2023-08-06T03:59:49;14.70;99.90
41678;DHT22;27364;49.026;8.712;2023-08-06T04:02:14;14.70;99.90
41678;DHT22;27364;49.026;8.712;2023-08-06T04:04:40;14.70;99.90
41678;DHT22;27364;49.026;8.712;2023-08-06T04:07:05;14.70;99.90
41678;DHT22;27364;49.026;8.712;2023-08-06T04:09:31;14.70;99.90
41678;DHT22;27364;49.026;8.712;2023-08-06T04:11:56;14.60;99.90
41678;DHT22;27364;49.026;8.712;2023-08-06T04:14:24;14.60;99.90
41678;DHT22;27364;49.026;8.712;2023-08-06T04:16:49;14.60;99.90
41678;DHT22;27364;49.026;8.712;2023-08-06T04:19:15;14.60;99.90
41678;DHT22;27364;49.026;8.712;2023-08-06T04:21:40;14.60;99.90
41678;DHT22;27364;49.026;8.712;2023-08-06T04:24:06;14.70;99.90
41678;DHT22;27364;49.026;8.712;2023-08-06T04:26:31;14.60;99.90
41678;DHT22;27364;49.026;8.712;2023-08-06T04:28:57;14.60;99.90
41678;DHT22;27364;49.026;8.712;2023-08-06T04:31:22;14.60;99.90
41678;DHT22;27364;49.026;8.712;2023-08-06T04:33:48;14.70;99.90
41678;DHT22;27364;49.026;8.712;2023-08-06T04:36:14;14.60;99.90
41678;DHT22;27364;49.026;8.712;2023-08-06T04:38:39;14.60;99.90
41678;DHT22;27364;49.026;8.712;2023-08-06T04:41:10;14.60;99.90
41678;DHT22;27364;49.026;8.712;2023-08-06T04:43:35;14.60;99.90
41678;DHT22;27364;49.026;8.712;2023-08-06T04:46:00;14.60;99.90
41678;DHT22;27364;49.026;8.712;2023-08-06T04:48:26;14.60;99.90
41678;DHT22;27364;49.026;8.712;2023-08-06T04:50:52;14.60;99.90
41678;DHT22;27364;49.026;8.712;2023-08-06T04:53:17;14.60;99.90
41678;DHT22;27364;49.026;8.712;2023-08-06T04:55:43;14.60;99.90
41678;DHT22;27364;49.026;8.712;2023-08-06T04:58:09;14.60;99.90
41678;DHT22;27364;49.026;8.712;2023-08-06T05:00:35;14.60;99.90
41678;DHT22;27364;49.026;8.712;2023-08-06T05:03:01;14.60;99.90
41678;DHT22;27364;49.026;8.712;2023-08-06T05:05:27;14.60;99.90
41678;DHT22;27364;49.026;8.712;2023-08-06T05:07:55;14.60;99.90
41678;DHT22;27364;49.026;8.712;2023-08-06T05:10:21;14.60;99.90
41678;DHT22;27364;49.026;8.712;2023-08-06T05:12:46;14.60;99.90
41678;DHT22;27364;49.026;8.712;2023-08-06T05:15:12;14.60;99.90
41678;DHT22;27364;49.026;8.712;2023-08-06T05:17:37;14.60;99.90
41678;DHT22;27364;49.026;8.712;2023-08-06T05:20:03;14.60;99.90
41678;DHT22;27364;49.026;8.712;2023-08-06T05:22:29;14.60;99.90
41678;DHT22;27364;49.026;8.712;2023-08-06T05:24:54;14.60;99.90
41678;DHT22;27364;49.026;8.712;2023-08-06T05:27:20;14.60;99.90
41678;DHT22;27364;49.026;8.712;2023-08-06T05:29:47;14.60;99.90
41678;DHT22;27364;49.026;8.712;2023-08-06T05:32:13;14.60;99.90
41678;DHT22;27364;49.026;8.712;2023-08-06T05:34:38;14.60;99.90
41678;DHT22;27364;49.026;8.712;2023-08-06T05:37:04;14.70;99.90
41678;DHT22;27364;49.026;8.712;2023-08-06T05:39:30;14.70;99.90
41678;DHT22;27364;49.026;8.712;2023-08-06T05:41:55;14.70;99.90
41678;DHT22;27364;49.026;8.712;2023-08-06T05:44:23;14.70;99.90
41678;DHT22;27364;49.026;8.712;2023-08-06T05:46:49;14.70;99.90
41678;DHT22;27364;49.026;8.712;2023-08-06T05:49:14;14.70;99.90
41678;DHT22;27364;49.026;8.712;2023-08-06T05:51:40;14.80;99.90
41678;DHT22;27364;49.026;8.712;2023-08-06T05:54:05;14.80;99.90
41678;DHT22;27364;49.026;8.712;2023-08-06T05:56:31;14.90;99.90
41678;DHT22;27364;49.026;8.712;2023-08-06T05:58:56;14.80;99.90
41678;DHT22;27364;49.026;8.712;2023-08-06T06:01:22;14.80;99.90
41678;DHT22;27364;49.026;8.712;2023-08-06T06:03:47;14.90;99.90
41678;DHT22;27364;49.026;8.712;2023-08-06T06:06:13;14.90;99.90
41678;DHT22;27364;49.026;8.712;2023-08-06T06:08:38;14.80;99.90
41678;DHT22;27364;49.026;8.712;2023-08-06T06:11:04;14.80;99.90
41678;DHT22;27364;49.026;8.712;2023-08-06T06:13:29;14.80;99.90
41678;DHT22;27364;49.026;8.712;2023-08-06T06:15:55;14.70;99.90
41678;DHT22;27364;49.026;8.712;2023-08-06T06:18:23;14.70;99.90
41678;DHT22;27364;49.026;8.712;2023-08-06T06:20:49;14.70;99.90
41678;DHT22;27364;49.026;8.712;2023-08-06T06:23:14;14.60;99.90
41678;DHT22;27364;49.026;8.712;2023-08-06T06:25:47;14.70;99.90
41678;DHT22;27364;49.026;8.712;2023-08-06T06:28:13;14.70;99.90
41678;DHT22;27364;49.026;8.712;2023-08-06T06:30:38;14.70;99.90
41678;DHT22;27364;49.026;8.712;2023-08-06T06:33:04;14.70;99.90
41678;DHT22;27364;49.026;8.712;2023-08-06T06:35:29;14.70;99.90
41678;DHT22;27364;49.026;8.712;2023-08-06T06:37:55;14.70;99.90
41678;DHT22;27364;49.026;8.712;2023-08-06T06:40:20;14.80;99.90
41678;DHT22;27364;49.026;8.712;2023-08-06T06:42:46;14.80;99.90
41678;DHT22;27364;49.026;8.712;2023-08-06T06:45:11;14.80;99.90
41678;DHT22;27364;49.026;8.712;2023-08-06T06:47:37;14.80;99.90
41678;DHT22;27364;49.026;8.712;2023-08-06T06:50:03;14.80;99.90
41678;DHT22;27364;49.026;8.712;2023-08-06T06:52:29;14.80;99.90
41678;DHT22;27364;49.026;8.712;2023-08-06T06:54:55;14.70;99.90
41678;DHT22;27364;49.026;8.712;2023-08-06T06:57:20;14.70;99.90
41678;DHT22;27364;49.026;8.712;2023-08-06T06:59:46;14.70;99.90
41678;DHT22;27364;49.026;8.712;2023-08-06T07:02:11;14.80;99.90
41678;DHT22;27364;49.026;8.712;2023-08-06T07:04:37;14.80;99.90
41678;DHT22;27364;49.026;8.712;2023-08-06T07:07:02;14.90;99.90
41678;DHT22;27364;49.026;8.712;2023-08-06T07:09:28;14.90;99.90
41678;DHT22;27364;49.026;8.712;2023-08-06T07:11:54;14.90;99.90
41678;DHT22;27364;49.026;8.712;2023-08-06T07:14:19;15.00;99.90
41678;DHT22;27364;49.026;8.712;2023-08-06T07:16:44;15.00;99.90
41678;DHT22;27364;49.026;8.712;2023-08-06T07:19:10;15.00;99.90
41678;DHT22;27364;49.026;8.712;2023-08-06T07:21:36;15.00;99.90
41678;DHT22;27364;49.026;8.712;2023-08-06T07:24:01;15.10;99.90
41678;DHT22;27364;49.026;8.712;2023-08-06T07:26:27;15.10;99.90
41678;DHT22;27364;49.026;8.712;2023-08-06T07:28:52;15.20;99.90
41678;DHT22;27364;49.026;8.712;2023-08-06T07:31:18;15.20;99.90
41678;DHT22;27364;49.026;8.712;2023-08-06T07:33:43;15.30;99.90
41678;DHT22;27364;49.026;8.712;2023-08-06T07:36:13;15.40;99.90
41678;DHT22;27364;49.026;8.712;2023-08-06T07:38:39;15.30;99.90
41678;DHT22;27364;49.026;8.712;2023-08-06T07:41:05;15.30;99.90
41678;DHT22;27364;49.026;8.712;2023-08-06T07:43:31;15.30;99.90
41678;DHT22;27364;49.026;8.712;2023-08-06T07:46:00;15.30;99.90
41678;DHT22;27364;49.026;8.712;2023-08-06T07:48:26;15.30;99.90
41678;DHT22;27364;49.026;8.712;2023-08-06T07:50:52;15.30;99.90
41678;DHT22;27364;49.026;8.712;2023-08-06T07:53:23;15.30;99.90
41678;DHT22;27364;49.026;8.712;2023-08-06T07:55:52;15.40;99.90
41678;DHT22;27364;49.026;8.712;2023-08-06T07:58:19;15.40;99.90
41678;DHT22;27364;49.026;8.712;2023-08-06T08:00:45;15.40;99.90
41678;DHT22;27364;49.026;8.712;2023-08-06T08:03:15;15.50;99.90
41678;DHT22;27364;49.026;8.712;2023-08-06T08:05:42;15.50;99.90
41678;DHT22;27364;49.026;8.712;2023-08-06T08:08:07;15.60;99.90
41678;DHT22;27364;49.026;8.712;2023-08-06T08:10:33;15.70;99.90
41678;DHT22;27364;49.026;8.712;2023-08-06T08:13:00;15.80;99.90
41678;DHT22;27364;49.026;8.712;2023-08-06T08:15:27;15.80;99.90
41678;DHT22;27364;49.026;8.712;2023-08-06T08:17:53;15.80;99.90
41678;DHT22;27364;49.026;8.712;2023-08-06T08:20:19;15.90;99.90
41678;DHT22;27364;49.026;8.712;2023-08-06T08:22:44;15.90;99.90
41678;DHT22;27364;49.026;8.712;2023-08-06T08:25:10;15.90;99.90
41678;DHT22;27364;49.026;8.712;2023-08-06T08:27:35;15.80;99.90
41678;DHT22;27364;49.026;8.712;2023-08-06T08:30:01;15.70;99.90
41678;DHT22;27364;49.026;8.712;2023-08-06T08:32:27;15.60;99.90
41678;DHT22;27364;49.026;8.712;2023-08-06T08:34:52;15.50;99.90
41678;DHT22;27364;49.026;8.712;2023-08-06T08:37:18;15.50;99.90
41678;DHT22;27364;49.026;8.712;2023-08-06T08:39:44;15.40;99.90
41678;DHT22;27364;49.026;8.712;2023-08-06T08:42:10;15.30;99.90
41678;DHT22;27364;49.026;8.712;2023-08-06T08:44:36;15.20;99.90
41678;DHT22;27364;49.026;8.712;2023-08-06T08:47:08;15.30;99.90
41678;DHT22;27364;49.026;8.712;2023-08-06T08:49:35;15.30;99.90
41678;DHT22;27364;49.026;8.712;2023-08-06T08:52:02;15.20;99.90
41678;DHT22;27364;49.026;8.712;2023-08-06T08:54:28;15.30;99.90
41678;DHT22;27364;49.026;8.712;2023-08-06T08:56:56;15.40;99.90
41678;DHT22;27364;49.026;8.712;2023-08-06T08:59:22;15.40;99.90
41678;DHT22;27364;49.026;8.712;2023-08-06T09:01:48;15.40;99.90
41678;DHT22;27364;49.026;8.712;2023-08-06T09:04:18;15.50;99.90
41678;DHT22;27364;49.026;8.712;2023-08-06T09:06:47;15.50;99.90
41678;DHT22;27364;49.026;8.712;2023-08-06T09:09:19;15.60;99.90
41678;DHT22;27364;49.026;8.712;2023-08-06T09:11:48;15.60;99.90
41678;DHT22;27364;49.026;8.712;2023-08-06T09:14:14;15.60;99.90
41678;DHT22;27364;49.026;8.712;2023-08-06T09:16:40;15.50;99.90
41678;DHT22;27364;49.026;8.712;2023-08-06T09:19:10;15.50;99.90
41678;DHT22;27364;49.026;8.712;2023-08-06T09:21:39;15.50;99.90
41678;DHT22;27364;49.026;8.712;2023-08-06T09:24:09;15.50;99.90
41678;DHT22;27364;49.026;8.712;2023-08-06T09:26:40;15.50;99.90
41678;DHT22;27364;49.026;8.712;2023-08-06T09:29:07;15.60;99.90
41678;DHT22;27364;49.026;8.712;2023-08-06T09:31:46;15.50;99.90
41678;DHT22;27364;49.026;8.712;2023-08-06T09:36:42;15.80;99.90
41678;DHT22;27364;49.026;8.712;2023-08-06T09:39:13;16.00;99.90
41678;DHT22;27364;49.026;8.712;2023-08-06T09:41:39;16.20;99.90
41678;DHT22;27364;49.026;8.712;2023-08-06T09:44:05;16.20;99.90
41678;DHT22;27364;49.026;8.712;2023-08-06T09:46:32;16.20;99.90
41678;DHT22;27364;49.026;8.712;2023-08-06T09:48:58;16.20;99.90
41678;DHT22;27364;49.026;8.712;2023-08-06T09:51:23;16.20;99.90
41678;DHT22;27364;49.026;8.712;2023-08-06T09:53:49;16.20;99.90
41678;DHT22;27364;49.026;8.712;2023-08-06T09:56:17;16.10;99.90
41678;DHT22;27364;49.026;8.712;2023-08-06T09:58:44;16.00;99.90
41678;DHT22;27364;49.026;8.712;2023-08-06T10:01:11;15.90;99.90
41678;DHT22;27364;49.026;8.712;2023-08-06T10:03:38;15.80;99.90
41678;DHT22;27364;49.026;8.712;2023-08-06T10:06:04;15.70;99.90
41678;DHT22;27364;49.026;8.712;2023-08-06T10:08:33;15.60;99.90
41678;DHT22;27364;49.026;8.712;2023-08-06T10:10:58;15.60;99.90
41678;DHT22;27364;49.026;8.712;2023-08-06T10:13:25;15.50;99.90
41678;DHT22;27364;49.026;8.712;2023-08-06T10:15:51;15.50;99.90
41678;DHT22;27364;49.026;8.712;2023-08-06T10:18:17;15.40;99.90
41678;DHT22;27364;49.026;8.712;2023-08-06T10:20:46;15.50;99.90
41678;DHT22;27364;49.026;8.712;2023-08-06T10:23:12;15.60;99.90
41678;DHT22;27364;49.026;8.712;2023-08-06T10:25:42;15.60;99.90
41678;DHT22;27364;49.026;8.712;2023-08-06T10:28:09;15.60;99.90
41678;DHT22;27364;49.026;8.712;2023-08-06T10:30:45;15.60;99.90
41678;DHT22;27364;49.026;8.712;2023-08-06T10:33:12;15.50;99.90
41678;DHT22;27364;49.026;8.712;2023-08-06T10:35:48;15.30;99.90
41678;DHT22;27364;49.026;8.712;2023-08-06T10:38:22;15.30;99.90
41678;DHT22;27364;49.026;8.712;2023-08-06T10:41:05;15.20;99.90
41678;DHT22;27364;49.026;8.712;2023-08-06T10:43:35;15.10;99.90
41678;DHT22;27364;49.026;8.712;2023-08-06T10:46:09;15.10;99.90
41678;DHT22;27364;49.026;8.712;2023-08-06T10:48:40;15.00;99.90
41678;DHT22;27364;49.026;8.712;2023-08-06T10:51:10;15.00;99.90
41678;DHT22;27364;49.026;8.712;2023-08-06T10:53:37;14.90;99.90
41678;DHT22;27364;49.026;8.712;2023-08-06T10:56:12;14.90;99.90
41678;DHT22;27364;49.026;8.712;2023-08-06T10:58:38;14.90;99.90
41678;DHT22;27364;49.026;8.712;2023-08-06T11:01:03;14.80;99.90
41678;DHT22;27364;49.026;8.712;2023-08-06T11:03:29;14.80;99.90
41678;DHT22;27364;49.026;8.712;2023-08-06T11:05:55;14.80;99.90
41678;DHT22;27364;49.026;8.712;2023-08-06T11:08:26;14.80;99.90
41678;DHT22;27364;49.026;8.712;2023-08-06T11:10:52;14.80;99.90
41678;DHT22;27364;49.026;8.712;2023-08-06T11:13:17;14.80;99.90
41678;DHT22;27364;49.026;8.712;2023-08-06T11:15:46;14.80;99.90
41678;DHT22;27364;49.026;8.712;2023-08-06T11:18:11;14.70;99.90
41678;DHT22;27364;49.026;8.712;2023-08-06T11:20:39;14.70;99.90
41678;DHT22;27364;49.026;8.712;2023-08-06T11:23:05;14.70;99.90
41678;DHT22;27364;49.026;8.712;2023-08-06T11:25:35;14.60;99.90
41678;DHT22;27364;49.026;8.712;2023-08-06T11:28:01;14.60;99.90
41678;DHT22;27364;49.026;8.712;2023-08-06T11:30:27;14.50;99.90
41678;DHT22;27364;49.026;8.712;2023-08-06T11:32:52;14.40;99.90
41678;DHT22;27364;49.026;8.712;2023-08-06T11:35:18;14.40;99.90
41678;DHT22;27364;49.026;8.712;2023-08-06T11:37:47;14.40;99.90
41678;DHT22;27364;49.026;8.712;2023-08-06T11:40:15;14.40;99.90
41678;DHT22;27364;49.026;8.712;2023-08-06T11:42:40;14.30;99.90
41678;DHT22;27364;49.026;8.712;2023-08-06T11:45:08;14.30;99.90
41678;DHT22;27364;49.026;8.712;2023-08-06T11:47:38;14.30;99.90
41678;DHT22;27364;49.026;8.712;2023-08-06T11:50:05;14.20;99.90
41678;DHT22;27364;49.026;8.712;2023-08-06T11:52:31;14.20;99.90
41678;DHT22;27364;49.026;8.712;2023-08-06T11:55:03;14.30;99.90
41678;DHT22;27364;49.026;8.712;2023-08-06T11:57:32;14.20;99.90
41678;DHT22;27364;49.026;8.712;2023-08-06T12:00:02;14.20;99.90
41678;DHT22;27364;49.026;8.712;2023-08-06T12:02:32;14.10;99.90
41678;DHT22;27364;49.026;8.712;2023-08-06T12:05:15;14.10;99.90
41678;DHT22;27364;49.026;8.712;2023-08-06T12:07:45;14.20;99.90
41678;DHT22;27364;49.026;8.712;2023-08-06T12:10:12;14.20;99.90
41678;DHT22;27364;49.026;8.712;2023-08-06T12:12:38;14.20;99.90
41678;DHT22;27364;49.026;8.712;2023-08-06T12:15:05;14.20;99.90
41678;DHT22;27364;49.026;8.712;2023-08-06T12:17:31;14.20;99.90
41678;DHT22;27364;49.026;8.712;2023-08-06T12:19:57;14.30;99.90
41678;DHT22;27364;49.026;8.712;2023-08-06T12:22:23;14.30;99.90
41678;DHT22;27364;49.026;8.712;2023-08-06T12:24:48;14.30;99.90
41678;DHT22;27364;49.026;8.712;2023-08-06T12:27:14;14.30;99.90
41678;DHT22;27364;49.026;8.712;2023-08-06T12:29:44;14.40;99.90
41678;DHT22;27364;49.026;8.712;2023-08-06T12:32:11;14.40;99.90
41678;DHT22;27364;49.026;8.712;2023-08-06T12:34:38;14.30;99.90
41678;DHT22;27364;49.026;8.712;2023-08-06T12:37:05;14.40;99.90
41678;DHT22;27364;49.026;8.712;2023-08-06T12:39:30;14.40;99.90
41678;DHT22;27364;49.026;8.712;2023-08-06T12:41:56;14.30;99.90
41678;DHT22;27364;49.026;8.712;2023-08-06T12:44:23;14.40;99.90
41678;DHT22;27364;49.026;8.712;2023-08-06T12:46:50;14.40;99.90
41678;DHT22;27364;49.026;8.712;2023-08-06T12:49:15;14.40;99.90
41678;DHT22;27364;49.026;8.712;2023-08-06T12:51:41;14.40;99.90
41678;DHT22;27364;49.026;8.712;2023-08-06T12:54:06;14.50;99.90
41678;DHT22;27364;49.026;8.712;2023-08-06T12:56:32;14.50;99.90
41678;DHT22;27364;49.026;8.712;2023-08-06T12:58:57;14.60;99.90
41678;DHT22;27364;49.026;8.712;2023-08-06T13:01:23;14.60;99.90
41678;DHT22;27364;49.026;8.712;2023-08-06T13:03:48;14.60;99.90
41678;DHT22;27364;49.026;8.712;2023-08-06T13:06:14;14.60;99.90
41678;DHT22;27364;49.026;8.712;2023-08-06T13:08:39;14.60;99.90
41678;DHT22;27364;49.026;8.712;2023-08-06T13:11:05;14.60;99.90
41678;DHT22;27364;49.026;8.712;2023-08-06T13:13:30;14.60;99.90
41678;DHT22;27364;49.026;8.712;2023-08-06T13:15:56;14.60;99.90
41678;DHT22;27364;49.026;8.712;2023-08-06T13:18:21;14.60;99.90
41678;DHT22;27364;49.026;8.712;2023-08-06T13:20:47;14.70;99.90
41678;DHT22;27364;49.026;8.712;2023-08-06T13:23:14;14.70;99.90
41678;DHT22;27364;49.026;8.712;2023-08-06T13:25:42;14.80;99.90
41678;DHT22;27364;49.026;8.712;2023-08-06T13:28:07;14.90;99.90
41678;DHT22;27364;49.026;8.712;2023-08-06T13:30:33;15.00;99.90
41678;DHT22;27364;49.026;8.712;2023-08-06T13:33:01;15.10;99.90
41678;DHT22;27364;49.026;8.712;2023-08-06T13:35:26;15.10;99.90
41678;DHT22;27364;49.026;8.712;2023-08-06T13:37:52;15.20;99.90
41678;DHT22;27364;49.026;8.712;2023-08-06T13:40:18;15.20;99.90
41678;DHT22;27364;49.026;8.712;2023-08-06T13:42:43;15.40;99.90
41678;DHT22;27364;49.026;8.712;2023-08-06T13:45:09;15.40;99.90
41678;DHT22;27364;49.026;8.712;2023-08-06T13:47:35;15.50;99.90
41678;DHT22;27364;49.026;8.712;2023-08-06T13:50:00;15.50;99.90
41678;DHT22;27364;49.026;8.712;2023-08-06T13:52:27;15.40;99.90
41678;DHT22;27364;49.026;8.712;2023-08-06T13:54:53;15.40;99.90
41678;DHT22;27364;49.026;8.712;2023-08-06T13:57:18;15.40;99.90
41678;DHT22;27364;49.026;8.712;2023-08-06T13:59:44;15.40;99.90
41678;DHT22;27364;49.026;8.712;2023-08-06T14:02:10;15.40;99.90
41678;DHT22;27364;49.026;8.712;2023-08-06T14:04:35;15.40;99.90
41678;DHT22;27364;49.026;8.712;2023-08-06T14:07:03;15.40;99.90
41678;DHT22;27364;49.026;8.712;2023-08-06T14:09:28;15.40;99.90
41678;DHT22;27364;49.026;8.712;2023-08-06T14:11:54;15.40;99.90
41678;DHT22;27364;49.026;8.712;2023-08-06T14:14:20;15.40;99.90
41678;DHT22;27364;49.026;8.712;2023-08-06T14:16:54;15.30;99.90
41678;DHT22;27364;49.026;8.712;2023-08-06T14:19:20;15.30;99.90
41678;DHT22;27364;49.026;8.712;2023-08-06T14:21:45;15.20;99.90
41678;DHT22;27364;49.026;8.712;2023-08-06T14:24:11;15.20;99.90
41678;DHT22;27364;49.026;8.712;2023-08-06T14:26:37;15.20;99.90
41678;DHT22;27364;49.026;8.712;2023-08-06T14:29:03;15.10;99.90
41678;DHT22;27364;49.026;8.712;2023-08-06T14:31:28;15.10;99.90
41678;DHT22;27364;49.026;8.712;2023-08-06T14:33:54;15.10;99.90
41678;DHT22;27364;49.026;8.712;2023-08-06T14:36:20;15.10;99.90
41678;DHT22;27364;49.026;8.712;2023-08-06T14:38:45;15.10;99.90
41678;DHT22;27364;49.026;8.712;2023-08-06T14:41:11;15.10;99.90
41678;DHT22;27364;49.026;8.712;2023-08-06T14:43:37;15.20;99.90
41678;DHT22;27364;49.026;8.712;2023-08-06T14:46:02;15.20;99.90
41678;DHT22;27364;49.026;8.712;2023-08-06T14:48:29;15.20;99.90
41678;DHT22;27364;49.026;8.712;2023-08-06T14:50:55;15.20;99.90
41678;DHT22;27364;49.026;8.712;2023-08-06T14:53:20;15.20;99.90
41678;DHT22;27364;49.026;8.712;2023-08-06T14:55:46;15.30;99.90
41678;DHT22;27364;49.026;8.712;2023-08-06T14:58:12;15.20;99.90
41678;DHT22;27364;49.026;8.712;2023-08-06T15:00:37;15.20;99.90
41678;DHT22;27364;49.026;8.712;2023-08-06T15:03:03;15.20;99.90
41678;DHT22;27364;49.026;8.712;2023-08-06T15:05:28;15.10;99.90
41678;DHT22;27364;49.026;8.712;2023-08-06T15:07:54;15.10;99.90
41678;DHT22;27364;49.026;8.712;2023-08-06T15:10:20;15.00;99.90
41678;DHT22;27364;49.026;8.712;2023-08-06T15:12:45;15.00;99.90
41678;DHT22;27364;49.026;8.712;2023-08-06T15:15:11;14.90;99.90
41678;DHT22;27364;49.026;8.712;2023-08-06T15:17:37;14.90;99.90
41678;DHT22;27364;49.026;8.712;2023-08-06T15:20:03;14.80;99.90
41678;DHT22;27364;49.026;8.712;2023-08-06T15:22:28;14.80;99.90
41678;DHT22;27364;49.026;8.712;2023-08-06T15:24:57;14.80;99.90
41678;DHT22;27364;49.026;8.712;2023-08-06T15:27:23;14.80;99.90
41678;DHT22;27364;49.026;8.712;2023-08-06T15:29:49;14.90;99.90
41678;DHT22;27364;49.026;8.712;2023-08-06T15:32:14;14.90;99.90
41678;DHT22;27364;49.026;8.712;2023-08-06T15:34:40;14.90;99.90